Time;durP1;ratioP1;P1;durP2;ratioP2;P2;SDS_P1;SDS_P2;PMS_P1;PMS_P2;Temp;Humidity;BMP_temperature;BMP_pressure;BME280_temperature;BME280_humidity;BME280_pressure;Samples;Min_cycle;Max_cycle;Signal;HPM_P1;HPM_P2
2022/07/02 00:00:02;;;;;;;1.10;0.80;;;17.70;98.10;;;;;;5032210;28;20045;-73
2022/07/02 00:02:32;;;;;;;0.60;0.60;;;17.70;97.80;;;;;;5031643;28;20030;-73
2022/07/02 00:05:01;;;;;;;0.90;0.80;;;17.70;97.80;;;;;;5031825;28;20029;-72
2022/07/02 00:07:27;;;;;;;0.70;0.65;;;17.70;97.50;;;;;;5031413;28;20029;-72
2022/07/02 00:09:57;;;;;;;0.55;0.55;;;17.70;97.50;;;;;;5032387;28;20048;-73
2022/07/02 00:12:24;;;;;;;0.60;0.60;;;17.70;96.90;;;;;;5033229;28;20029;-73
2022/07/02 00:14:55;;;;;;;0.60;0.60;;;17.70;96.80;;;;;;5035636;28;20083;-73
2022/07/02 00:17:22;;;;;;;0.75;0.52;;;17.70;97.00;;;;;;5035099;28;20108;-73
2022/07/02 00:19:48;;;;;;;0.90;0.77;;;17.70;96.90;;;;;;5035764;28;20064;-73
2022/07/02 00:22:15;;;;;;;0.70;0.60;;;17.70;96.60;;;;;;5035721;28;20025;-73
2022/07/02 00:24:42;;;;;;;1.05;0.57;;;17.70;96.60;;;;;;5035590;28;20037;-73
2022/07/02 00:27:10;;;;;;;0.68;0.68;;;17.60;96.50;;;;;;5035593;28;20140;-73
2022/07/02 00:29:45;;;;;;;0.57;0.57;;;17.60;96.30;;;;;;5035089;28;20554;-72
2022/07/02 00:32:11;;;;;;;0.50;0.50;;;17.60;96.30;;;;;;5035513;28;20044;-72
2022/07/02 00:34:38;;;;;;;0.60;0.60;;;17.60;96.10;;;;;;5034924;28;20029;-72
2022/07/02 00:37:06;;;;;;;0.50;0.50;;;17.60;96.30;;;;;;5035351;28;20038;-72
2022/07/02 00:39:32;;;;;;;0.50;0.50;;;17.60;96.40;;;;;;5034917;28;20033;-72
2022/07/02 00:41:59;;;;;;;0.70;0.70;;;17.60;96.30;;;;;;5035380;28;20036;-73
2022/07/02 00:44:26;;;;;;;0.50;0.50;;;17.60;95.90;;;;;;5034802;28;20037;-73
2022/07/02 00:46:53;;;;;;;0.40;0.40;;;17.60;96.00;;;;;;5035321;28;20538;-72
2022/07/02 00:49:21;;;;;;;0.70;0.60;;;17.60;95.90;;;;;;5034987;28;20067;-77
2022/07/02 00:51:46;;;;;;;0.52;0.52;;;17.60;96.00;;;;;;5035500;28;20112;-73
2022/07/02 00:54:12;;;;;;;1.25;0.50;;;17.60;95.80;;;;;;5035083;28;20113;-73
2022/07/02 00:56:38;;;;;;;0.60;0.60;;;17.60;95.80;;;;;;5034561;28;20037;-73
2022/07/02 00:59:04;;;;;;;1.20;0.60;;;17.60;96.00;;;;;;5035043;28;20036;-73
2022/07/02 01:01:30;;;;;;;0.77;0.50;;;17.60;95.80;;;;;;5034551;28;20104;-73
2022/07/02 01:03:59;;;;;;;0.77;0.57;;;17.60;95.80;;;;;;5034636;28;20072;-73
2022/07/02 01:06:27;;;;;;;1.55;0.50;;;17.60;95.80;;;;;;5034368;28;20045;-73
2022/07/02 01:11:42;;;;;;;1.13;0.50;;;17.50;95.80;;;;;;5034067;28;20032;-73
2022/07/02 01:14:07;;;;;;;0.60;0.50;;;17.50;95.60;;;;;;5034780;28;20025;-73
2022/07/02 01:16:33;;;;;;;0.68;0.50;;;17.50;95.40;;;;;;5034114;28;20025;-73
2022/07/02 01:18:59;;;;;;;0.47;0.47;;;17.40;95.50;;;;;;5034334;28;20022;-73
2022/07/02 01:21:24;;;;;;;0.60;0.60;;;17.40;95.80;;;;;;5034245;28;20026;-74
2022/07/02 01:23:50;;;;;;;0.50;0.50;;;17.40;95.70;;;;;;5033649;28;20040;-73
2022/07/02 01:26:15;;;;;;;1.02;0.50;;;17.40;95.80;;;;;;5034511;28;20029;-73
2022/07/02 01:28:41;;;;;;;0.50;0.50;;;17.30;95.80;;;;;;5033854;28;20076;-73
2022/07/02 01:31:07;;;;;;;1.25;0.60;;;17.30;95.80;;;;;;5034406;28;20033;-73
2022/07/02 01:33:32;;;;;;;0.40;0.40;;;17.30;96.00;;;;;;5033754;28;20034;-73
2022/07/02 01:35:58;;;;;;;1.08;0.70;;;17.30;96.10;;;;;;5034176;28;20524;-73
2022/07/02 01:38:24;;;;;;;1.08;0.70;;;17.30;96.30;;;;;;5034035;28;20100;-77
2022/07/02 01:40:50;;;;;;;1.92;0.70;;;17.20;96.10;;;;;;5034250;28;20152;-73
2022/07/02 01:43:15;;;;;;;0.80;0.80;;;17.20;95.90;;;;;;5034179;28;20454;-73
2022/07/02 01:45:41;;;;;;;0.52;0.50;;;17.20;95.80;;;;;;5033905;28;20450;-73
2022/07/02 01:48:07;;;;;;;0.57;0.52;;;17.20;96.10;;;;;;5034191;28;20036;-74
2022/07/02 01:50:36;;;;;;;0.52;0.52;;;17.20;95.90;;;;;;5033400;28;20029;-73
2022/07/02 01:53:02;;;;;;;0.55;0.55;;;17.20;95.80;;;;;;5034114;28;20032;-73
2022/07/02 01:55:28;;;;;;;0.95;0.60;;;17.20;95.70;;;;;;5033488;28;20025;-74
2022/07/02 01:57:53;;;;;;;0.80;0.80;;;17.20;95.80;;;;;;5033952;28;20075;-73
2022/07/02 02:00:19;;;;;;;1.17;0.60;;;17.10;96.00;;;;;;5033178;28;20049;-73
2022/07/02 02:02:46;;;;;;;0.70;0.68;;;17.10;95.90;;;;;;5033052;28;20644;-73
2022/07/02 02:05:12;;;;;;;2.03;0.80;;;17.20;96.00;;;;;;5033813;28;20121;-73
2022/07/02 02:07:37;;;;;;;1.17;0.80;;;17.10;95.90;;;;;;5033171;28;20065;-73
2022/07/02 02:10:03;;;;;;;1.05;0.70;;;17.20;96.00;;;;;;5033833;28;20480;-73
2022/07/02 02:12:29;;;;;;;0.65;0.65;;;17.20;96.00;;;;;;5033046;28;20382;-73
2022/07/02 02:14:55;;;;;;;0.98;0.85;;;17.20;95.70;;;;;;5033429;28;20030;-72
2022/07/02 02:17:21;;;;;;;0.80;0.73;;;17.10;95.70;;;;;;5033583;28;20025;-73
2022/07/02 02:19:47;;;;;;;0.82;0.65;;;17.10;95.60;;;;;;5032712;28;20054;-72
2022/07/02 02:22:12;;;;;;;0.60;0.60;;;17.20;95.80;;;;;;5033499;28;20378;-72
2022/07/02 02:24:38;;;;;;;0.73;0.70;;;17.10;95.60;;;;;;5032667;28;20065;-72
2022/07/02 02:27:04;;;;;;;0.70;0.70;;;17.20;95.50;;;;;;5033111;28;20045;-72
2022/07/02 02:29:29;;;;;;;0.60;0.60;;;17.20;95.60;;;;;;5032822;28;20033;-74
2022/07/02 02:31:55;;;;;;;0.70;0.70;;;17.20;95.20;;;;;;5033431;28;20030;-73
2022/07/02 02:34:21;;;;;;;1.00;0.82;;;17.10;95.10;;;;;;5032933;28;20370;-73
2022/07/02 02:36:47;;;;;;;0.88;0.77;;;17.20;95.20;;;;;;5032672;28;20797;-73
2022/07/02 02:39:12;;;;;;;1.40;0.70;;;17.20;95.20;;;;;;5033337;28;20033;-73
2022/07/02 02:41:38;;;;;;;1.10;1.00;;;17.20;95.20;;;;;;5032620;28;20083;-73
2022/07/02 02:44:04;;;;;;;1.10;1.00;;;17.10;95.40;;;;;;5033201;28;20536;-73
2022/07/02 02:46:29;;;;;;;1.10;0.90;;;17.10;95.40;;;;;;5032695;28;20017;-78
2022/07/02 02:48:55;;;;;;;2.13;0.88;;;17.10;95.40;;;;;;5033239;28;20109;-73
2022/07/02 02:51:21;;;;;;;1.00;0.82;;;17.10;95.60;;;;;;5032766;28;20036;-73
2022/07/02 02:53:47;;;;;;;0.60;0.60;;;17.10;95.40;;;;;;5032450;28;20030;-73
2022/07/02 02:56:13;;;;;;;2.80;0.73;;;17.20;95.50;;;;;;5032932;28;20033;-74
2022/07/02 02:58:39;;;;;;;1.00;0.82;;;17.10;95.10;;;;;;5032466;28;20087;-74
2022/07/02 03:01:05;;;;;;;1.52;0.70;;;17.20;95.20;;;;;;5031522;28;20030;-74
2022/07/02 03:03:30;;;;;;;1.50;1.00;;;17.10;95.20;;;;;;5030975;28;20042;-74
2022/07/02 03:05:56;;;;;;;1.15;1.02;;;17.10;95.50;;;;;;5032834;28;20458;-73
2022/07/02 03:08:22;;;;;;;1.20;1.00;;;17.10;95.50;;;;;;5031140;28;20363;-73
2022/07/02 03:10:48;;;;;;;1.65;1.20;;;17.10;95.50;;;;;;5031890;28;20062;-73
2022/07/02 03:13:14;;;;;;;1.42;1.15;;;17.10;95.60;;;;;;5029867;28;20037;-74
2022/07/02 03:15:40;;;;;;;1.30;1.00;;;17.10;95.60;;;;;;5028947;28;20108;-73
2022/07/02 03:18:06;;;;;;;1.42;1.08;;;17.10;95.70;;;;;;5014937;28;20461;-73
2022/07/02 03:20:32;;;;;;;1.10;1.00;;;17.00;95.70;;;;;;5032298;28;20047;-77
2022/07/02 03:22:59;;;;;;;1.13;1.00;;;17.00;95.60;;;;;;5032559;28;20022;-73
2022/07/02 03:25:25;;;;;;;1.02;0.90;;;17.00;95.50;;;;;;5032657;28;20179;-73
2022/07/02 03:27:51;;;;;;;1.45;1.17;;;17.00;95.40;;;;;;5014280;28;20545;-73
2022/07/02 03:30:17;;;;;;;1.27;1.13;;;17.00;95.30;;;;;;5032517;28;20111;-73
2022/07/02 03:32:42;;;;;;;1.20;1.02;;;17.00;95.40;;;;;;5032272;28;20036;-73
2022/07/02 03:35:08;;;;;;;1.15;1.05;;;17.00;95.30;;;;;;5032701;28;20480;-73
2022/07/02 03:37:34;;;;;;;0.85;0.85;;;17.00;95.30;;;;;;5032060;28;20026;-77
2022/07/02 03:39:59;;;;;;;1.02;0.95;;;17.00;94.80;;;;;;5032375;28;20095;-76
2022/07/02 03:42:25;;;;;;;1.10;1.00;;;17.00;95.10;;;;;;5028863;28;20065;-75
2022/07/02 03:44:51;;;;;;;1.63;0.90;;;17.00;95.00;;;;;;5031115;28;20030;-76
2022/07/02 03:47:16;;;;;;;1.33;1.00;;;17.00;95.10;;;;;;5031240;28;20088;-77
2022/07/02 03:49:42;;;;;;;0.80;0.70;;;17.00;94.90;;;;;;5031874;28;20029;-72
2022/07/02 03:52:08;;;;;;;0.70;0.70;;;17.00;94.70;;;;;;5034664;28;20037;-72
2022/07/02 03:54:34;;;;;;;0.82;0.73;;;17.00;94.30;;;;;;5034689;28;20026;-79
2022/07/02 03:56:59;;;;;;;1.13;0.90;;;17.00;94.00;;;;;;5034918;28;20032;-78
2022/07/02 03:59:25;;;;;;;1.45;1.00;;;17.00;94.10;;;;;;5034698;28;20022;-77
2022/07/02 04:01:52;;;;;;;1.77;1.05;;;17.00;94.10;;;;;;5034451;28;20390;-77
2022/07/02 04:04:19;;;;;;;1.35;0.80;;;17.10;94.10;;;;;;5034595;28;20420;-77
2022/07/02 04:06:44;;;;;;;0.93;0.70;;;17.10;94.10;;;;;;5033053;28;20048;-77
2022/07/02 04:09:10;;;;;;;0.77;0.75;;;17.10;93.90;;;;;;5033593;28;20504;-77
2022/07/02 04:11:36;;;;;;;0.90;0.80;;;17.20;93.80;;;;;;5033448;28;20032;-77
2022/07/02 04:14:01;;;;;;;0.70;0.65;;;17.30;93.60;;;;;;5034303;28;20026;-77
2022/07/02 04:16:27;;;;;;;0.60;0.60;;;17.30;93.20;;;;;;5034240;28;20029;-75
2022/07/02 04:18:52;;;;;;;1.40;0.70;;;17.40;92.70;;;;;;5033976;28;20036;-70
2022/07/02 04:21:18;;;;;;;0.70;0.70;;;17.50;92.40;;;;;;5028403;28;20367;-73
2022/07/02 04:29:56;;;;;;;0.82;0.80;;;17.80;91.10;;;;;;5031097;28;20031;-71
2022/07/02 04:32:34;;;;;;;1.10;0.98;;;17.90;90.80;;;;;;5034926;28;20446;-71
2022/07/02 04:34:59;;;;;;;1.55;0.77;;;18.00;90.40;;;;;;5035028;28;20026;-71
2022/07/02 04:37:43;;;;;;;0.70;0.70;;;18.20;90.00;;;;;;5035607;28;20508;-71
2022/07/02 04:40:09;;;;;;;0.85;0.70;;;18.40;89.30;;;;;;5025544;28;20028;-72
2022/07/02 04:42:49;;;;;;;0.90;0.80;;;18.60;87.60;;;;;;5035096;28;20472;-73
2022/07/02 04:45:15;;;;;;;0.90;0.80;;;18.70;86.90;;;;;;5032029;28;20033;-73
2022/07/02 04:47:40;;;;;;;1.00;0.70;;;18.80;85.70;;;;;;5033263;28;20382;-72
2022/07/02 04:50:07;;;;;;;1.20;0.80;;;18.90;84.60;;;;;;5033543;28;20029;-73
2022/07/02 04:52:32;;;;;;;0.60;0.52;;;19.00;83.60;;;;;;5035010;28;20021;-72
2022/07/02 04:54:58;;;;;;;0.80;0.80;;;19.00;82.90;;;;;;5034403;28;20433;-73
2022/07/02 04:57:23;;;;;;;0.60;0.60;;;19.10;82.10;;;;;;5034751;28;20458;-72
2022/07/02 04:59:49;;;;;;;0.90;0.90;;;19.20;80.90;;;;;;5033118;28;20060;-73
2022/07/02 05:02:15;;;;;;;1.00;0.90;;;19.30;80.50;;;;;;5034535;28;20351;-73
2022/07/02 05:04:40;;;;;;;1.70;0.68;;;19.50;80.30;;;;;;5034002;28;20034;-73
2022/07/02 05:07:06;;;;;;;0.85;0.70;;;19.60;79.70;;;;;;5034597;28;20374;-73
2022/07/02 05:09:32;;;;;;;2.70;0.90;;;19.70;78.60;;;;;;5034281;28;20026;-73
2022/07/02 05:11:58;;;;;;;0.82;0.70;;;19.90;77.60;;;;;;5034058;28;20100;-73
2022/07/02 05:14:24;;;;;;;0.70;0.70;;;20.00;77.00;;;;;;5034390;28;20045;-73
2022/07/02 05:16:49;;;;;;;0.68;0.68;;;20.10;76.10;;;;;;5033849;28;20510;-73
2022/07/02 05:19:15;;;;;;;0.88;0.80;;;20.30;75.70;;;;;;5034492;28;20030;-73
2022/07/02 05:21:42;;;;;;;0.68;0.52;;;20.40;75.60;;;;;;5033781;28;20064;-73
2022/07/02 05:24:08;;;;;;;1.42;0.88;;;20.60;74.60;;;;;;5033988;28;20037;-73
2022/07/02 05:26:33;;;;;;;1.42;0.63;;;20.80;73.80;;;;;;5034101;28;20596;-74
2022/07/02 05:28:59;;;;;;;3.67;0.88;;;20.90;71.10;;;;;;5033902;28;20085;-74
2022/07/02 05:31:25;;;;;;;0.55;0.50;;;21.10;70.10;;;;;;5034360;28;20482;-74
2022/07/02 05:33:50;;;;;;;0.68;0.68;;;21.20;70.30;;;;;;5033724;28;20410;-74
2022/07/02 05:36:16;;;;;;;0.70;0.70;;;21.30;69.20;;;;;;5033992;28;20476;-73
2022/07/02 05:38:41;;;;;;;1.85;0.85;;;21.50;68.10;;;;;;5033487;28;20024;-74
2022/07/02 05:41:07;;;;;;;0.80;0.70;;;21.70;66.70;;;;;;5034062;28;20489;-74
2022/07/02 05:43:33;;;;;;;0.68;0.68;;;21.80;65.30;;;;;;5033962;28;20389;-74
2022/07/02 05:45:59;;;;;;;0.70;0.70;;;22.00;64.80;;;;;;5033404;28;20021;-74
2022/07/02 05:48:25;;;;;;;0.80;0.70;;;22.00;64.70;;;;;;5033680;28;20187;-73
2022/07/02 05:50:51;;;;;;;0.65;0.47;;;22.20;65.60;;;;;;5033328;28;20025;-74
2022/07/02 05:53:16;;;;;;;0.57;0.50;;;22.30;64.00;;;;;;5033683;28;20376;-73
2022/07/02 05:55:42;;;;;;;1.60;0.90;;;22.50;63.40;;;;;;5032915;28;20100;-75
2022/07/02 05:58:08;;;;;;;0.65;0.65;;;22.80;62.60;;;;;;5033484;28;20029;-74
2022/07/02 06:00:34;;;;;;;0.50;0.50;;;23.00;61.80;;;;;;5033719;28;20091;-74
2022/07/02 06:03:00;;;;;;;1.30;0.82;;;23.30;60.30;;;;;;5024957;28;20478;-74
2022/07/02 06:08:09;;;;;;;3.05;1.08;;;23.80;58.10;;;;;;5011647;28;20088;-72
2022/07/02 06:10:35;;;;;;;0.75;0.75;;;24.10;57.70;;;;;;5013426;28;20437;-72
2022/07/02 06:13:01;;;;;;;0.52;0.50;;;24.30;57.20;;;;;;5024833;28;20056;-72
2022/07/02 06:15:27;;;;;;;0.47;0.47;;;24.70;56.30;;;;;;5032924;28;20382;-72
2022/07/02 06:17:53;;;;;;;0.68;0.60;;;25.10;55.70;;;;;;5028904;28;20045;-72
2022/07/02 06:20:19;;;;;;;0.70;0.70;;;25.50;54.70;;;;;;5016353;28;20428;-73
2022/07/02 06:22:44;;;;;;;0.82;0.70;;;26.00;53.70;;;;;;5025405;28;20053;-73
2022/07/02 06:25:10;;;;;;;1.25;0.70;;;26.70;52.40;;;;;;5032846;28;20037;-71
2022/07/02 06:27:36;;;;;;;0.50;0.50;;;27.10;51.50;;;;;;5032767;28;20045;-73
2022/07/02 06:30:03;;;;;;;0.95;0.80;;;27.80;50.40;;;;;;5031434;28;20060;-74
2022/07/02 06:32:29;;;;;;;0.65;0.65;;;28.40;49.90;;;;;;5031580;28;20397;-74
2022/07/02 06:34:55;;;;;;;0.70;0.60;;;28.60;48.20;;;;;;5031862;28;20033;-75
2022/07/02 06:37:21;;;;;;;1.15;0.60;;;28.60;47.70;;;;;;5032364;28;20553;-78
2022/07/02 06:39:47;;;;;;;4.43;1.02;;;29.00;47.20;;;;;;5031193;28;20068;-76
2022/07/02 06:42:19;;;;;;;0.50;0.50;;;29.30;46.80;;;;;;5032107;28;20060;-76
2022/07/02 06:44:46;;;;;;;0.93;0.70;;;29.70;46.30;;;;;;5031822;28;20052;-76
2022/07/02 06:47:12;;;;;;;1.95;0.68;;;29.60;44.70;;;;;;5031988;28;20033;-74
2022/07/02 06:49:38;;;;;;;1.77;0.90;;;29.90;45.40;;;;;;5032508;28;20515;-76
2022/07/02 06:52:04;;;;;;;0.82;0.70;;;30.30;44.50;;;;;;5032283;28;20025;-75
2022/07/02 06:54:30;;;;;;;0.60;0.60;;;30.70;43.00;;;;;;5032154;28;20466;-75
2022/07/02 06:56:56;;;;;;;2.25;0.73;;;30.50;42.80;;;;;;5031561;28;20029;-75
2022/07/02 06:59:22;;;;;;;0.70;0.70;;;30.70;43.30;;;;;;5032475;28;20053;-75
2022/07/02 07:01:47;;;;;;;1.60;0.70;;;30.30;41.80;;;;;;5031497;28;20030;-76
2022/07/02 07:04:13;;;;;;;0.52;0.50;;;30.10;42.50;;;;;;5025891;28;20033;-76
2022/07/02 07:06:43;;;;;;;0.70;0.70;;;29.70;42.50;;;;;;5008710;28;20066;-75
2022/07/02 07:09:09;;;;;;;1.35;0.80;;;29.60;43.80;;;;;;5020882;28;20030;-73
2022/07/02 07:11:35;;;;;;;0.57;0.57;;;29.30;43.30;;;;;;5030792;28;20082;-68
2022/07/02 07:14:00;;;;;;;0.52;0.52;;;29.10;44.10;;;;;;5030807;28;20488;-72
2022/07/02 07:16:26;;;;;;;0.50;0.50;;;29.00;44.70;;;;;;5032402;28;20057;-69
2022/07/02 07:19:02;;;;;;;0.65;0.65;;;29.20;44.20;;;;;;5031206;28;20385;-72
2022/07/02 07:21:28;;;;;;;0.43;0.43;;;29.30;43.90;;;;;;5031381;28;20022;-72
2022/07/02 07:23:54;;;;;;;0.57;0.52;;;30.00;43.60;;;;;;5031832;28;20045;-72
2022/07/02 07:26:19;;;;;;;0.90;0.55;;;30.50;43.70;;;;;;5032670;28;20339;-72
2022/07/02 07:28:45;;;;;;;0.98;0.80;;;31.10;42.50;;;;;;5032544;28;20069;-72
2022/07/02 07:31:10;;;;;;;0.57;0.50;;;31.30;41.60;;;;;;5032408;28;20455;-72
2022/07/02 07:33:37;;;;;;;0.73;0.73;;;31.20;41.50;;;;;;5032500;28;20528;-72
2022/07/02 07:36:03;;;;;;;0.70;0.70;;;31.30;42.20;;;;;;5032192;28;20057;-71
2022/07/02 07:38:29;;;;;;;1.00;0.85;;;31.30;41.60;;;;;;5032675;28;20060;-71
2022/07/02 07:40:55;;;;;;;0.75;0.63;;;31.00;41.90;;;;;;5032250;28;20493;-72
2022/07/02 07:43:20;;;;;;;0.70;0.43;;;30.60;41.70;;;;;;5032554;28;20113;-71
2022/07/02 07:45:49;;;;;;;1.05;0.68;;;30.50;42.80;;;;;;5032125;28;20029;-71
2022/07/02 07:48:14;;;;;;;0.90;0.75;;;30.40;43.30;;;;;;5032602;28;20025;-72
2022/07/02 07:50:40;;;;;;;0.60;0.60;;;30.50;42.90;;;;;;5032521;28;20029;-72
2022/07/02 07:53:06;;;;;;;1.77;0.60;;;30.60;42.50;;;;;;5031980;28;20413;-72
2022/07/02 07:55:32;;;;;;;0.47;0.45;;;30.60;42.10;;;;;;5032126;28;20108;-72
2022/07/02 07:57:57;;;;;;;0.57;0.57;;;30.60;41.70;;;;;;5031616;28;20064;-73
2022/07/02 08:00:23;;;;;;;0.77;0.70;;;30.10;42.10;;;;;;5032301;28;20026;-73
2022/07/02 08:02:49;;;;;;;0.50;0.50;;;29.70;42.20;;;;;;5031948;28;20476;-73
2022/07/02 08:05:15;;;;;;;0.50;0.50;;;29.30;42.20;;;;;;5032347;28;20034;-72
2022/07/02 08:07:41;;;;;;;0.63;0.63;;;28.80;42.80;;;;;;5032468;28;20021;-72
2022/07/02 08:10:10;;;;;;;0.68;0.57;;;28.40;43.50;;;;;;5031880;28;20223;-72
2022/07/02 08:12:36;;;;;;;0.75;0.57;;;27.80;44.80;;;;;;5032222;28;20112;-73
2022/07/02 08:15:03;;;;;;;0.60;0.60;;;27.50;45.70;;;;;;5031998;28;20380;-72
2022/07/02 08:17:29;;;;;;;0.70;0.68;;;27.20;45.50;;;;;;5032320;28;20030;-72
2022/07/02 08:19:58;;;;;;;0.65;0.65;;;26.90;46.40;;;;;;5031295;28;20021;-72
2022/07/02 08:22:24;;;;;;;0.60;0.60;;;26.60;47.00;;;;;;5032187;28;20068;-72
2022/07/02 08:24:49;;;;;;;0.50;0.50;;;26.40;47.10;;;;;;5031496;28;20037;-72
2022/07/02 08:27:15;;;;;;;0.98;0.60;;;26.20;48.00;;;;;;5032167;28;20095;-72
2022/07/02 08:29:41;;;;;;;2.17;0.70;;;26.00;48.60;;;;;;5032297;28;20079;-72
2022/07/02 08:32:06;;;;;;;0.57;0.57;;;25.80;48.70;;;;;;5031368;28;20532;-72
2022/07/02 08:34:33;;;;;;;0.60;0.55;;;25.70;49.40;;;;;;5035546;28;20458;-71
2022/07/02 08:36:59;;;;;;;0.77;0.73;;;25.70;50.30;;;;;;5035019;28;20022;-71
2022/07/02 08:39:25;;;;;;;0.70;0.60;;;25.50;50.00;;;;;;5035448;28;20098;-72
2022/07/02 08:41:52;;;;;;;0.60;0.60;;;25.40;49.00;;;;;;5034880;28;20441;-72
2022/07/02 08:44:21;;;;;;;0.50;0.50;;;25.30;49.40;;;;;;5035443;28;20033;-72
2022/07/02 08:46:47;;;;;;;0.70;0.70;;;25.20;50.50;;;;;;5035276;28;20394;-73
2022/07/02 08:49:17;;;;;;;0.60;0.60;;;25.20;50.90;;;;;;5034670;28;20424;-73
2022/07/02 08:51:51;;;;;;;0.55;0.45;;;25.10;51.30;;;;;;5035049;28;20530;-72
2022/07/02 08:54:18;;;;;;;0.60;0.57;;;24.90;51.20;;;;;;5035802;28;20033;-72
2022/07/02 08:56:44;;;;;;;0.65;0.65;;;24.90;51.90;;;;;;5035180;28;20037;-72
2022/07/02 08:59:10;;;;;;;0.40;0.40;;;24.90;52.20;;;;;;5035089;28;20394;-72
2022/07/02 09:01:36;;;;;;;0.55;0.55;;;24.90;52.90;;;;;;5035040;28;20018;-73
2022/07/02 09:04:03;;;;;;;0.93;0.60;;;24.90;52.70;;;;;;5034306;28;20038;-72
2022/07/02 09:06:30;;;;;;;0.60;0.60;;;24.90;51.80;;;;;;5035076;28;20034;-72
2022/07/02 09:08:57;;;;;;;0.70;0.60;;;24.90;51.90;;;;;;5034477;28;20029;-72
2022/07/02 09:11:24;;;;;;;0.60;0.60;;;24.80;52.20;;;;;;5035076;28;20068;-73
2022/07/02 09:13:52;;;;;;;1.33;1.00;;;24.80;52.90;;;;;;5034857;28;20029;-73
2022/07/02 09:16:18;;;;;;;0.70;0.70;;;24.80;52.50;;;;;;5034586;28;20040;-71
2022/07/02 09:18:44;;;;;;;0.80;0.80;;;24.70;53.20;;;;;;5034632;28;20030;-73
2022/07/02 09:21:09;;;;;;;1.25;1.00;;;24.60;52.90;;;;;;5034395;28;20523;-73
2022/07/02 09:23:44;;;;;;;1.30;0.80;;;24.50;53.90;;;;;;5034673;28;20021;-73
2022/07/02 09:26:25;;;;;;;0.50;0.50;;;24.40;54.10;;;;;;5033990;28;20029;-73
2022/07/02 09:29:00;;;;;;;1.27;0.60;;;24.30;55.00;;;;;;5034286;28;20045;-72
2022/07/02 09:31:32;;;;;;;0.50;0.50;;;24.30;54.50;;;;;;5034614;28;20052;-73
2022/07/02 09:33:59;;;;;;;0.43;0.43;;;24.30;54.70;;;;;;5016413;28;20033;-72
2022/07/02 09:36:25;;;;;;;1.63;0.93;;;24.20;54.50;;;;;;5034223;28;20029;-72
2022/07/02 09:38:52;;;;;;;1.30;0.77;;;24.20;54.80;;;;;;5034202;28;20021;-72
2022/07/02 09:41:26;;;;;;;1.30;0.60;;;24.20;54.60;;;;;;5034198;28;20026;-72
2022/07/02 09:43:56;;;;;;;0.52;0.52;;;24.20;55.00;;;;;;5034106;28;20124;-71
2022/07/02 09:46:21;;;;;;;0.93;0.73;;;24.10;54.60;;;;;;5034022;28;20369;-72
2022/07/02 09:48:48;;;;;;;0.88;0.60;;;24.10;54.60;;;;;;5033882;28;20116;-72
2022/07/02 09:51:14;;;;;;;0.70;0.70;;;24.10;54.50;;;;;;5033692;28;20029;-72
2022/07/02 09:54:08;;;;;;;0.65;0.65;;;24.10;54.70;;;;;;5033839;28;20061;-72
2022/07/02 09:56:34;;;;;;;0.70;0.70;;;24.20;54.90;;;;;;5031715;28;20120;-72
2022/07/02 09:58:59;;;;;;;0.57;0.57;;;24.20;53.70;;;;;;5033638;28;20109;-72
2022/07/02 10:01:25;;;;;;;0.60;0.60;;;24.10;53.60;;;;;;5034155;28;20421;-71
2022/07/02 10:03:52;;;;;;;0.50;0.50;;;24.00;53.60;;;;;;5033824;28;20033;-71
2022/07/02 10:06:19;;;;;;;0.60;0.60;;;24.10;55.30;;;;;;5033402;28;20029;-73
2022/07/02 10:08:45;;;;;;;0.70;0.60;;;24.10;53.40;;;;;;5033647;28;20545;-72
2022/07/02 10:11:13;;;;;;;0.47;0.45;;;24.10;52.90;;;;;;5033358;28;20029;-73
2022/07/02 10:13:40;;;;;;;0.55;0.55;;;24.00;53.20;;;;;;5033923;28;20025;-73
2022/07/02 10:16:13;;;;;;;0.70;0.68;;;24.00;54.00;;;;;;5032844;28;20024;-71
2022/07/02 10:18:43;;;;;;;1.52;0.60;;;24.10;54.90;;;;;;5033711;28;20080;-73
2022/07/02 10:21:12;;;;;;;1.02;0.60;;;24.10;54.20;;;;;;5033221;28;20044;-71
2022/07/02 10:23:44;;;;;;;0.77;0.50;;;24.20;52.50;;;;;;5033374;28;20025;-71
2022/07/02 10:26:10;;;;;;;0.57;0.57;;;24.20;52.10;;;;;;5033026;28;20052;-72
2022/07/02 10:28:36;;;;;;;1.15;0.80;;;24.20;53.00;;;;;;5032916;28;20049;-71
2022/07/02 10:31:02;;;;;;;0.88;0.60;;;24.20;53.10;;;;;;5032659;28;20032;-72
2022/07/02 10:33:56;;;;;;;1.00;0.73;;;24.30;53.20;;;;;;5033309;28;20029;-72
2022/07/02 10:36:22;;;;;;;0.70;0.70;;;24.30;53.30;;;;;;5033205;28;20037;-71
2022/07/02 10:38:57;;;;;;;0.50;0.50;;;24.40;52.90;;;;;;5033287;28;20025;-71
2022/07/02 10:41:30;;;;;;;0.77;0.73;;;24.40;53.20;;;;;;5033305;28;20033;-72
2022/07/02 10:43:57;;;;;;;0.88;0.77;;;24.50;52.80;;;;;;5032894;28;20367;-71
2022/07/02 10:46:25;;;;;;;0.75;0.70;;;24.50;52.80;;;;;;5032786;28;20029;-73
2022/07/02 10:48:53;;;;;;;0.70;0.70;;;24.50;52.80;;;;;;5033116;28;20025;-73
2022/07/02 10:51:22;;;;;;;0.80;0.80;;;24.50;52.50;;;;;;5032451;28;20164;-73
2022/07/02 10:53:53;;;;;;;0.88;0.60;;;24.60;52.70;;;;;;5032826;28;20025;-73
2022/07/02 10:56:19;;;;;;;0.73;0.60;;;24.50;49.90;;;;;;5031489;28;20402;-73
2022/07/02 10:58:44;;;;;;;0.93;0.70;;;24.60;51.10;;;;;;5033304;28;20025;-73
2022/07/02 11:01:22;;;;;;;0.73;0.73;;;24.60;50.80;;;;;;5032437;28;20112;-71
2022/07/02 11:03:53;;;;;;;1.00;0.68;;;24.70;51.00;;;;;;5032908;28;20033;-72
2022/07/02 11:06:24;;;;;;;1.05;0.63;;;24.80;51.50;;;;;;5032557;28;20021;-73
2022/07/02 11:08:53;;;;;;;;;;;24.80;50.60;;;;;;5033371;28;20037;-72
2022/07/02 11:11:26;;;;;;;0.60;0.60;;;24.90;51.00;;;;;;5032545;28;20349;-73
2022/07/02 11:13:58;;;;;;;0.75;0.60;;;25.00;51.00;;;;;;5032597;28;20076;-73
2022/07/02 11:16:30;;;;;;;0.73;0.50;;;25.00;51.00;;;;;;5032708;28;20123;-73
2022/07/02 11:18:58;;;;;;;1.63;0.93;;;25.00;50.00;;;;;;5032889;28;20018;-72
2022/07/02 11:21:25;;;;;;;0.70;0.70;;;25.10;50.80;;;;;;5031954;28;20446;-73
2022/07/02 11:23:51;;;;;;;1.17;0.70;;;25.10;50.40;;;;;;5032632;28;20037;-73
2022/07/02 11:26:28;;;;;;;0.82;0.60;;;25.20;49.80;;;;;;5032220;28;20458;-73
2022/07/02 11:28:54;;;;;;;1.08;0.57;;;25.20;49.60;;;;;;5032885;28;20120;-71
2022/07/02 11:31:22;;;;;;;1.42;0.55;;;25.30;48.70;;;;;;5032052;28;20034;-72
2022/07/02 11:33:50;;;;;;;0.60;0.60;;;25.30;48.60;;;;;;5032638;28;20069;-72
2022/07/02 11:36:16;;;;;;;0.70;0.57;;;25.30;48.70;;;;;;5032206;28;20025;-72
2022/07/02 11:38:45;;;;;;;0.70;0.45;;;25.40;49.10;;;;;;5032568;28;20021;-72
2022/07/02 11:41:29;;;;;;;0.73;0.70;;;25.40;48.50;;;;;;5032144;28;20030;-72
2022/07/02 11:43:56;;;;;;;0.43;0.43;;;25.50;49.40;;;;;;5032690;28;20037;-72
2022/07/02 11:46:24;;;;;;;0.70;0.70;;;25.50;47.60;;;;;;5032312;28;20768;-72
2022/07/02 11:48:51;;;;;;;1.10;0.60;;;25.50;47.40;;;;;;5032691;28;20100;-73
2022/07/02 11:51:21;;;;;;;0.90;0.70;;;25.50;47.70;;;;;;5032184;28;20112;-73
2022/07/02 11:53:59;;;;;;;0.95;0.70;;;25.50;48.70;;;;;;5032078;28;20021;-72
2022/07/02 11:56:25;;;;;;;1.38;0.73;;;25.50;47.30;;;;;;5012190;28;20050;-73
2022/07/02 11:58:52;;;;;;;0.70;0.65;;;25.50;47.40;;;;;;5012854;28;20440;-73
2022/07/02 12:01:36;;;;;;;1.15;0.70;;;25.40;47.30;;;;;;5012337;28;20026;-73
2022/07/02 12:04:08;;;;;;;0.70;0.70;;;25.40;48.00;;;;;;5012725;28;20037;-73
2022/07/02 12:06:45;;;;;;;0.50;0.50;;;25.40;47.90;;;;;;5012615;28;20040;-73
2022/07/02 12:09:16;;;;;;;0.57;0.57;;;25.40;47.40;;;;;;5015164;28;20421;-73
2022/07/02 12:11:44;;;;;;;;;;;25.30;46.90;;;;;;5016517;28;20018;-73
2022/07/02 12:14:11;;;;;;;0.88;0.85;;;25.30;47.00;;;;;;5015925;28;19913;-73
2022/07/02 12:16:42;;;;;;;0.75;0.60;;;25.30;47.60;;;;;;5016469;28;20387;-72
2022/07/02 12:19:09;;;;;;;0.60;0.60;;;25.30;47.20;;;;;;5015885;28;20117;-73
2022/07/02 12:22:01;;;;;;;0.77;0.77;;;25.20;47.20;;;;;;5034495;28;20029;-72
2022/07/02 12:24:30;;;;;;;1.48;0.60;;;25.20;47.90;;;;;;5030711;28;20390;-72
2022/07/02 12:26:59;;;;;;;0.80;0.77;;;25.20;47.40;;;;;;5035683;28;20049;-72
2022/07/02 12:32:17;;;;;;;0.68;0.68;;;25.10;46.40;;;;;;5035327;28;20035;-72
2022/07/02 12:34:44;;;;;;;0.75;0.70;;;25.10;47.30;;;;;;5035817;28;20034;-72
2022/07/02 12:37:30;;;;;;;3.10;0.70;;;25.10;47.10;;;;;;5034936;28;20028;-73
2022/07/02 12:39:59;;;;;;;0.80;0.80;;;25.10;47.40;;;;;;5035331;28;20382;-72
2022/07/02 12:42:25;;;;;;;0.70;0.70;;;25.10;47.10;;;;;;5035261;28;20087;-72
2022/07/02 12:45:05;;;;;;;0.73;0.60;;;25.10;47.60;;;;;;5035386;28;20390;-72
2022/07/02 12:47:39;;;;;;;0.93;0.70;;;25.00;47.60;;;;;;5035604;28;20037;-72
2022/07/02 12:50:13;;;;;;;0.70;0.70;;;25.00;47.80;;;;;;5035813;28;20034;-72
2022/07/02 12:52:50;;;;;;;1.25;0.77;;;25.10;48.20;;;;;;5035373;28;20022;-72
2022/07/02 12:55:27;;;;;;;3.42;0.90;;;25.10;47.60;;;;;;5034642;28;20041;-72
2022/07/02 12:57:55;;;;;;;1.75;0.80;;;25.10;48.00;;;;;;5035105;28;20032;-72
2022/07/02 13:00:22;;;;;;;1.35;0.80;;;25.10;47.80;;;;;;5034904;28;20025;-72
2022/07/02 13:03:08;;;;;;;0.70;0.70;;;25.20;48.60;;;;;;5035407;28;20028;-72